Time;durP1;ratioP1;P1;durP2;ratioP2;P2;SDS_P1;SDS_P2;PMS_P1;PMS_P2;Temp;Humidity;BMP_temperature;BMP_pressure;BME280_temperature;BME280_humidity;BME280_pressure;Samples;Min_cycle;Max_cycle;Signal;HPM_P1;HPM_P2
2021/04/20 00:01:16;;;;;;;33.43;23.63;;;6.90;93.30;;;;;;4942265;28;20191;-82
2021/04/20 00:03:44;;;;;;;31.07;23.77;;;6.90;93.40;;;;;;4946151;28;20207;-82
2021/04/20 00:06:13;;;;;;;29.03;23.13;;;6.70;94.60;;;;;;4949168;28;20199;-82
2021/04/20 00:08:40;;;;;;;31.10;24.50;;;6.70;95.20;;;;;;4943017;28;20184;-81
2021/04/20 00:11:09;;;;;;;32.57;23.07;;;6.60;96.50;;;;;;4944877;29;20209;-82
2021/04/20 00:13:38;;;;;;;31.50;22.70;;;6.60;96.60;;;;;;4943589;29;20202;-82
2021/04/20 00:16:05;;;;;;;28.70;22.53;;;6.90;94.70;;;;;;4945416;28;20261;-82
2021/04/20 00:18:33;;;;;;;28.73;21.30;;;7.10;92.60;;;;;;4928503;29;20651;-83
2021/04/20 00:21:01;;;;;;;27.77;21.20;;;7.20;92.50;;;;;;4922766;28;20216;-81
2021/04/20 00:23:29;;;;;;;31.80;22.37;;;7.10;92.30;;;;;;4926925;28;20549;-81
2021/04/20 00:25:56;;;;;;;28.83;21.73;;;6.90;92.80;;;;;;4930308;29;20211;-81
2021/04/20 00:28:25;;;;;;;32.87;22.70;;;7.00;93.40;;;;;;4940202;28;20570;-83
2021/04/20 00:30:53;;;;;;;27.60;21.97;;;6.70;93.40;;;;;;4946641;28;20198;-82
2021/04/20 00:33:21;;;;;;;30.30;22.57;;;6.60;94.00;;;;;;4929992;28;21146;-84
2021/04/20 00:35:49;;;;;;;26.37;21.63;;;6.50;93.80;;;;;;4946366;28;20229;-82
2021/04/20 00:38:17;;;;;;;27.53;21.50;;;6.50;95.00;;;;;;4945156;28;20318;-82
2021/04/20 00:40:45;;;;;;;27.90;21.90;;;6.60;94.50;;;;;;4939684;28;20479;-80
2021/04/20 00:43:13;;;;;;;30.10;21.63;;;6.50;94.40;;;;;;4937813;29;20211;-81
2021/04/20 00:45:43;;;;;;;27.73;21.10;;;6.40;94.00;;;;;;4932185;28;20472;-81
2021/04/20 00:48:11;;;;;;;32.87;22.90;;;6.30;94.70;;;;;;4942145;29;20178;-81
2021/04/20 00:50:40;;;;;;;30.87;22.57;;;6.20;95.50;;;;;;4926402;29;20211;-81
2021/04/20 00:53:08;;;;;;;30.50;22.43;;;6.20;95.00;;;;;;4927430;29;20309;-82
2021/04/20 00:55:37;;;;;;;31.77;22.90;;;6.00;95.20;;;;;;4918061;29;20289;-81
2021/04/20 00:58:05;;;;;;;30.80;23.50;;;5.90;95.60;;;;;;4917962;29;20218;-80
2021/04/20 01:00:34;;;;;;;30.97;22.77;;;5.80;95.70;;;;;;4918759;28;20224;-81
2021/04/20 01:03:02;;;;;;;27.63;21.43;;;5.70;96.10;;;;;;4914250;28;20711;-81
2021/04/20 01:05:33;;;;;;;31.13;21.33;;;5.60;96.40;;;;;;4916756;29;20586;-82
2021/04/20 01:08:03;;;;;;;26.60;20.67;;;5.60;97.10;;;;;;4925959;28;20208;-80
2021/04/20 01:10:34;;;;;;;31.60;22.83;;;5.70;99.60;;;;;;4921487;29;20236;-82
2021/04/20 01:13:03;;;;;;;26.67;20.87;;;6.00;99.30;;;;;;4924557;29;20207;-83
2021/04/20 01:15:32;;;;;;;27.07;21.50;;;6.00;98.40;;;;;;4920136;29;20338;-83
2021/04/20 01:18:10;;;;;;;22.73;18.77;;;6.10;97.90;;;;;;4923817;29;20217;-82
2021/04/20 01:20:40;;;;;;;25.87;17.47;;;6.10;97.70;;;;;;4923916;29;20683;-82
2021/04/20 01:23:10;;;;;;;27.33;18.30;;;6.40;95.90;;;;;;4931692;28;20209;-82
2021/04/20 01:25:40;;;;;;;22.17;17.53;;;6.60;93.50;;;;;;4935092;28;20206;-81
2021/04/20 01:28:08;;;;;;;24.40;17.57;;;6.90;92.00;;;;;;4933357;28;20306;-82
2021/04/20 01:30:36;;;;;;;20.90;17.17;;;7.30;91.00;;;;;;4935125;28;20207;-82
2021/04/20 01:33:06;;;;;;;19.10;16.40;;;7.40;90.70;;;;;;4940475;29;20196;-82
2021/04/20 01:35:34;;;;;;;21.17;17.33;;;7.50;90.30;;;;;;4935116;28;20212;-83
2021/04/20 01:38:03;;;;;;;23.83;17.07;;;7.30;90.60;;;;;;4944798;28;20536;-82
2021/04/20 01:40:31;;;;;;;22.93;17.37;;;7.00;90.90;;;;;;4941904;28;20417;-81
2021/04/20 01:43:00;;;;;;;22.13;17.47;;;6.80;91.40;;;;;;4946286;28;20491;-80
2021/04/20 01:45:30;;;;;;;21.23;17.70;;;6.60;92.60;;;;;;4940331;28;20449;-83
2021/04/20 01:48:00;;;;;;;25.90;19.17;;;6.40;92.60;;;;;;4939888;29;20247;-82
2021/04/20 01:50:28;;;;;;;23.27;18.97;;;6.10;93.80;;;;;;4930323;28;20234;-81
2021/04/20 01:52:56;;;;;;;23.40;19.00;;;5.80;95.10;;;;;;4927993;29;20190;-82
2021/04/20 01:55:24;;;;;;;23.57;18.73;;;5.90;96.20;;;;;;4947318;28;20245;-82
2021/04/20 01:57:54;;;;;;;22.60;18.63;;;5.80;96.60;;;;;;4939417;29;20202;-82
2021/04/20 02:00:23;;;;;;;25.33;19.20;;;5.60;97.00;;;;;;4946827;28;20230;-81
2021/04/20 02:02:51;;;;;;;24.47;19.40;;;5.40;98.00;;;;;;4924686;29;20268;-81
2021/04/20 02:05:21;;;;;;;22.73;18.70;;;5.40;97.80;;;;;;4924303;28;20238;-83
2021/04/20 02:07:48;;;;;;;26.53;19.50;;;5.10;98.00;;;;;;4927430;29;20199;-81
2021/04/20 02:10:16;;;;;;;26.50;19.03;;;4.90;99.30;;;;;;4917829;29;20257;-82
2021/04/20 02:12:45;;;;;;;25.23;19.93;;;4.80;99.90;;;;;;4924244;28;20241;-83
2021/04/20 02:15:16;;;;;;;28.60;20.30;;;4.70;99.90;;;;;;4933923;29;20213;-81
2021/04/20 02:17:46;;;;;;;27.07;21.43;;;4.60;99.90;;;;;;4925194;29;20237;-82
2021/04/20 02:20:15;;;;;;;27.53;20.53;;;4.60;99.90;;;;;;4921126;29;20209;-82
2021/04/20 02:22:48;;;;;;;24.97;20.53;;;4.40;99.90;;;;;;4923485;28;20284;-82
2021/04/20 02:25:18;;;;;;;28.00;21.63;;;4.60;99.90;;;;;;4925655;28;20210;-81
2021/04/20 02:27:49;;;;;;;26.53;21.50;;;4.40;99.90;;;;;;4919568;29;20229;-82
2021/04/20 02:30:18;;;;;;;24.23;20.50;;;4.50;99.90;;;;;;4924330;28;20212;-83
2021/04/20 02:32:46;;;;;;;26.60;19.93;;;4.70;99.90;;;;;;4923782;29;20265;-84
2021/04/20 02:35:17;;;;;;;26.10;19.70;;;4.70;99.90;;;;;;4923812;29;20201;-81
2021/04/20 02:37:46;;;;;;;21.57;18.33;;;4.60;99.90;;;;;;4939558;29;20216;-82
2021/04/20 02:40:19;;;;;;;25.63;18.67;;;4.60;99.90;;;;;;4941148;28;20229;-82
2021/04/20 02:42:49;;;;;;;25.03;19.70;;;4.50;99.90;;;;;;4941378;29;20204;-83
2021/04/20 02:45:17;;;;;;;28.50;21.87;;;4.60;99.90;;;;;;4918240;29;20205;-81
2021/04/20 02:47:46;;;;;;;28.70;23.27;;;4.50;99.90;;;;;;4916206;28;20221;-82
2021/04/20 02:50:16;;;;;;;30.57;23.93;;;4.40;99.90;;;;;;4916461;29;20208;-82
2021/04/20 02:52:46;;;;;;;31.20;23.87;;;4.50;99.90;;;;;;4927709;28;20587;-82
2021/04/20 02:55:15;;;;;;;32.83;26.53;;;4.40;99.90;;;;;;4923670;28;20206;-82
2021/04/20 02:57:45;;;;;;;37.10;25.80;;;4.40;99.90;;;;;;4919725;29;20207;-81
2021/04/20 03:00:16;;;;;;;28.00;23.30;;;4.30;99.90;;;;;;4914838;29;20342;-83
2021/04/20 03:02:48;;;;;;;32.23;24.37;;;4.30;99.90;;;;;;4921619;29;20199;-83
2021/04/20 03:05:18;;;;;;;29.77;24.63;;;4.20;99.90;;;;;;4923448;29;20419;-81
2021/04/20 03:07:48;;;;;;;31.30;25.07;;;4.10;99.90;;;;;;4939965;28;20864;-81
2021/04/20 03:10:18;;;;;;;28.77;23.93;;;4.10;99.90;;;;;;4915467;29;20846;-81
2021/04/20 03:12:47;;;;;;;35.37;26.70;;;4.20;99.90;;;;;;4917613;29;20217;-82
2021/04/20 03:15:17;;;;;;;31.13;24.90;;;4.20;99.90;;;;;;4917826;29;20209;-81
2021/04/20 03:17:47;;;;;;;31.67;25.30;;;4.10;99.90;;;;;;4915486;28;20210;-82
2021/04/20 03:20:17;;;;;;;30.73;24.63;;;4.10;99.90;;;;;;4933715;29;20241;-82
2021/04/20 03:22:47;;;;;;;28.70;23.47;;;4.20;99.90;;;;;;4923508;29;20247;-83
2021/04/20 03:25:19;;;;;;;27.60;22.90;;;4.10;99.90;;;;;;4918575;29;20235;-81
2021/04/20 03:27:50;;;;;;;29.77;22.97;;;4.10;99.90;;;;;;4931965;29;20616;-81
2021/04/20 03:30:19;;;;;;;30.80;24.00;;;4.10;99.90;;;;;;4913893;29;20255;-82
2021/04/20 03:32:57;;;;;;;31.33;23.60;;;4.00;99.90;;;;;;4917576;29;20210;-82
2021/04/20 03:35:30;;;;;;;32.43;26.20;;;4.00;99.90;;;;;;4916014;29;20727;-80
2021/04/20 03:38:04;;;;;;;38.43;30.23;;;4.00;99.90;;;;;;4916715;29;20212;-81
2021/04/20 03:40:34;;;;;;;32.80;28.00;;;4.10;99.90;;;;;;4919553;29;20240;-83
2021/04/20 03:43:07;;;;;;;32.80;27.60;;;3.90;99.90;;;;;;4918288;29;20240;-82
2021/04/20 03:45:42;;;;;;;34.13;27.70;;;3.90;99.90;;;;;;4922262;29;20219;-81
2021/04/20 03:48:16;;;;;;;30.93;26.27;;;3.90;99.90;;;;;;4922040;29;20216;-82
2021/04/20 03:50:54;;;;;;;30.73;25.03;;;3.90;99.90;;;;;;4934269;29;20613;-82
2021/04/20 03:53:24;;;;;;;30.07;23.00;;;4.00;99.90;;;;;;4927128;29;20204;-81
2021/04/20 03:55:54;;;;;;;31.00;24.50;;;3.90;99.90;;;;;;4919298;29;20214;-82
2021/04/20 03:58:23;;;;;;;35.23;25.00;;;4.00;99.90;;;;;;4919396;29;20768;-80
2021/04/20 04:00:54;;;;;;;28.43;23.53;;;4.10;99.90;;;;;;4934285;29;20286;-82
2021/04/20 04:03:26;;;;;;;30.40;25.30;;;4.10;99.90;;;;;;4917524;29;20221;-81
2021/04/20 04:05:55;;;;;;;30.67;25.17;;;4.20;99.90;;;;;;4916875;29;20897;-81
2021/04/20 04:08:24;;;;;;;32.83;25.67;;;4.20;99.90;;;;;;4917383;29;20261;-80
2021/04/20 04:10:56;;;;;;;31.73;24.87;;;4.20;99.90;;;;;;4923348;29;20212;-82
2021/04/20 04:13:27;;;;;;;32.20;23.90;;;4.40;99.90;;;;;;4918338;28;20208;-82
2021/04/20 04:15:59;;;;;;;33.23;25.97;;;4.40;99.90;;;;;;4936511;28;20206;-81
2021/04/20 04:18:31;;;;;;;31.33;25.03;;;4.40;99.90;;;;;;4923129;29;20202;-83
2021/04/20 04:21:00;;;;;;;31.23;24.40;;;4.40;99.90;;;;;;4923577;29;20906;-82
2021/04/20 04:23:34;;;;;;;38.03;26.93;;;4.50;99.90;;;;;;4915863;29;20220;-83
2021/04/20 04:26:05;;;;;;;34.93;26.20;;;4.70;99.90;;;;;;4920418;29;20224;-81
2021/04/20 04:28:34;;;;;;;34.23;24.87;;;4.80;99.90;;;;;;4918766;28;20214;-81
2021/04/20 04:31:04;;;;;;;32.20;24.20;;;5.10;99.90;;;;;;4918541;29;20242;-82
2021/04/20 04:33:34;;;;;;;30.73;24.10;;;5.10;99.90;;;;;;4915432;29;20225;-81
2021/04/20 04:36:04;;;;;;;30.27;24.50;;;5.20;99.90;;;;;;4915242;29;20214;-81
2021/04/20 04:38:33;;;;;;;28.63;24.60;;;5.30;99.90;;;;;;4914865;29;20214;-83
2021/04/20 04:41:01;;;;;;;31.17;22.33;;;5.40;99.90;;;;;;4922904;28;20202;-82
2021/04/20 04:43:29;;;;;;;22.87;19.03;;;5.60;99.90;;;;;;4913894;28;20217;-80
2021/04/20 04:45:57;;;;;;;22.67;17.27;;;5.70;99.90;;;;;;4924093;28;20217;-82
2021/04/20 04:48:26;;;;;;;24.10;16.43;;;5.90;99.90;;;;;;4914288;28;20211;-81
2021/04/20 04:50:55;;;;;;;23.13;17.33;;;6.10;99.90;;;;;;4916212;29;20210;-82
2021/04/20 04:53:24;;;;;;;24.60;18.30;;;6.20;96.80;;;;;;4916408;29;20208;-82
2021/04/20 04:55:54;;;;;;;21.30;16.47;;;6.50;96.70;;;;;;4914451;28;20210;-83
2021/04/20 04:58:25;;;;;;;23.10;17.47;;;6.70;94.80;;;;;;4922508;28;21540;-81
2021/04/20 05:00:55;;;;;;;28.57;17.87;;;6.80;96.60;;;;;;4914814;29;20239;-81
2021/04/20 05:03:23;;;;;;;19.20;13.93;;;7.00;94.50;;;;;;4919474;29;20208;-80
2021/04/20 05:05:58;;;;;;;18.43;14.20;;;7.30;92.30;;;;;;4932220;28;20215;-81
2021/04/20 05:08:25;;;;;;;20.30;14.73;;;7.40;91.50;;;;;;4922894;28;20217;-80
2021/04/20 05:10:53;;;;;;;22.67;14.77;;;7.60;91.60;;;;;;4922040;28;20224;-82
2021/04/20 05:13:21;;;;;;;52.63;17.83;;;7.70;91.20;;;;;;4916222;29;20764;-79
2021/04/20 05:15:48;;;;;;;32.50;15.77;;;7.80;90.80;;;;;;4923499;29;20616;-81
2021/04/20 05:18:16;;;;;;;29.17;16.20;;;8.00;90.20;;;;;;4942429;28;20198;-82
2021/04/20 05:20:52;;;;;;;28.70;15.53;;;8.20;90.30;;;;;;4933667;28;20480;-83
2021/04/20 05:23:20;;;;;;;23.33;15.47;;;8.30;90.20;;;;;;4931179;29;20291;-81
2021/04/20 05:25:52;;;;;;;19.00;13.83;;;8.40;89.00;;;;;;4929638;28;20238;-81
2021/04/20 05:28:21;;;;;;;15.60;13.27;;;8.50;88.40;;;;;;4936295;29;20433;-81
2021/04/20 05:30:52;;;;;;;18.70;12.97;;;8.70;88.30;;;;;;4921160;29;20401;-82
2021/04/20 05:33:20;;;;;;;18.83;12.93;;;8.70;87.80;;;;;;4922054;28;20333;-82
2021/04/20 05:35:48;;;;;;;14.53;12.70;;;8.90;87.50;;;;;;4914147;28;20241;-83
2021/04/20 05:38:20;;;;;;;16.30;11.90;;;9.00;86.90;;;;;;4917229;28;20217;-84
2021/04/20 05:40:48;;;;;;;13.50;11.90;;;9.20;87.00;;;;;;4921643;29;20453;-81
2021/04/20 05:43:15;;;;;;;14.93;11.73;;;9.20;86.70;;;;;;4932549;29;20401;-83
2021/04/20 05:45:43;;;;;;;14.00;11.60;;;9.40;86.70;;;;;;4927129;29;20213;-84
2021/04/20 05:48:11;;;;;;;15.00;11.53;;;9.50;86.00;;;;;;4925767;28;20212;-82
2021/04/20 05:50:39;;;;;;;17.83;12.53;;;9.70;85.40;;;;;;4922903;28;20241;-84
2021/04/20 05:53:11;;;;;;;16.40;11.40;;;9.70;85.30;;;;;;4931657;28;20269;-81
2021/04/20 05:55:40;;;;;;;12.80;10.83;;;10.00;85.10;;;;;;4921366;29;20245;-83
2021/04/20 05:58:08;;;;;;;11.70;10.10;;;10.00;84.40;;;;;;4928223;29;20741;-83
2021/04/20 06:00:37;;;;;;;17.73;10.80;;;10.40;84.20;;;;;;4923203;28;22024;-83
2021/04/20 06:03:08;;;;;;;14.43;11.03;;;10.40;83.80;;;;;;4920871;28;20267;-82
2021/04/20 06:05:36;;;;;;;16.37;10.80;;;10.70;83.50;;;;;;4916570;28;20567;-81
2021/04/20 06:08:07;;;;;;;12.83;10.47;;;10.80;83.70;;;;;;4915988;28;20227;-82
2021/04/20 06:10:35;;;;;;;14.80;10.00;;;11.00;83.40;;;;;;4929700;28;20216;-83
2021/04/20 06:13:04;;;;;;;13.20;9.63;;;11.10;83.10;;;;;;4932489;29;20281;-81
2021/04/20 06:15:32;;;;;;;17.37;10.23;;;11.30;83.30;;;;;;4922003;29;20285;-83
2021/04/20 06:18:01;;;;;;;11.93;8.83;;;11.50;83.10;;;;;;4917285;28;21218;-81
2021/04/20 06:20:29;;;;;;;15.10;9.47;;;11.60;81.70;;;;;;4927628;28;20481;-83
2021/04/20 06:22:58;;;;;;;15.07;9.00;;;11.80;81.80;;;;;;4926221;28;21513;-83
2021/04/20 06:25:27;;;;;;;10.23;8.60;;;11.90;81.50;;;;;;4916261;28;20218;-83
2021/04/20 06:27:54;;;;;;;12.07;8.13;;;12.10;81.50;;;;;;4917399;29;20666;-82
2021/04/20 06:30:24;;;;;;;13.00;8.30;;;12.20;81.30;;;;;;4927474;28;20221;-84
2021/04/20 06:32:52;;;;;;;9.73;8.30;;;12.40;81.20;;;;;;4913897;28;20213;-82
2021/04/20 06:35:23;;;;;;;10.57;7.43;;;12.50;80.80;;;;;;4911132;29;20556;-84
2021/04/20 06:37:52;;;;;;;9.57;7.63;;;12.60;80.20;;;;;;4905840;28;20883;-83
2021/04/20 06:40:27;;;;;;;10.07;8.13;;;12.70;79.70;;;;;;4908028;29;20238;-84
2021/04/20 06:42:59;;;;;;;8.43;7.47;;;12.80;79.50;;;;;;4912681;28;20502;-84
2021/04/20 06:45:38;;;;;;;8.60;7.40;;;12.90;79.20;;;;;;4916845;28;20634;-84
2021/04/20 06:48:14;;;;;;;9.67;6.90;;;13.00;79.00;;;;;;4910089;29;20468;-84
2021/04/20 06:50:44;;;;;;;7.83;6.20;;;13.00;78.60;;;;;;4926386;28;20209;-83
2021/04/20 06:53:17;;;;;;;7.40;6.10;;;13.10;77.40;;;;;;4930788;29;20403;-85
2021/04/20 06:56:04;;;;;;;7.50;6.03;;;13.20;77.60;;;;;;4922055;28;20200;-83
2021/04/20 06:58:41;;;;;;;8.27;6.83;;;13.30;76.90;;;;;;4921311;29;20218;-84
2021/04/20 07:01:17;;;;;;;8.60;6.50;;;13.40;77.00;;;;;;4927370;29;20226;-83
2021/04/20 07:03:58;;;;;;;8.33;6.80;;;13.50;77.10;;;;;;4929061;28;20197;-83
2021/04/20 07:06:31;;;;;;;7.50;6.77;;;13.70;76.60;;;;;;4931149;28;20411;-80
2021/04/20 07:09:01;;;;;;;5.90;5.03;;;13.80;76.50;;;;;;4915106;28;20289;-84
2021/04/20 07:11:32;;;;;;;6.57;5.17;;;14.00;75.60;;;;;;4922902;29;20437;-82
2021/04/20 07:14:03;;;;;;;9.03;5.77;;;14.10;74.80;;;;;;4926158;29;20235;-84
2021/04/20 07:16:40;;;;;;;7.70;5.40;;;14.20;74.20;;;;;;4922974;28;20198;-83
2021/04/20 07:19:25;;;;;;;8.30;6.13;;;14.30;73.40;;;;;;4891349;29;20360;-82
2021/04/20 07:22:08;;;;;;;6.97;5.50;;;14.30;73.10;;;;;;4916997;29;20210;-84
2021/04/20 07:24:52;;;;;;;5.90;5.30;;;14.20;73.30;;;;;;4926889;29;20230;-85
2021/04/20 07:27:40;;;;;;;8.07;5.77;;;14.20;72.10;;;;;;4918414;29;20493;-84
2021/04/20 07:30:18;;;;;;;8.17;5.43;;;14.30;72.10;;;;;;4922119;29;20210;-85
2021/04/20 07:33:19;;;;;;;9.50;5.47;;;14.40;72.10;;;;;;4910481;29;20220;-85
2021/04/20 07:35:56;;;;;;;8.23;5.53;;;14.30;71.50;;;;;;4912904;29;20203;-85
2021/04/20 07:38:32;;;;;;;5.20;4.70;;;14.30;72.10;;;;;;4903068;29;20230;-85
2021/04/20 07:41:10;;;;;;;9.80;5.40;;;14.40;71.80;;;;;;4914239;29;20253;-84
2021/04/20 07:44:03;;;;;;;5.30;4.77;;;14.50;72.40;;;;;;4909439;29;20229;-84
2021/04/20 07:46:38;;;;;;;5.83;4.90;;;14.40;71.60;;;;;;4926152;29;20198;-85
2021/04/20 07:49:18;;;;;;;5.30;4.80;;;14.70;71.40;;;;;;4927179;28;20213;-84
2021/04/20 07:51:59;;;;;;;5.57;4.67;;;14.70;70.50;;;;;;4930867;28;20566;-84
2021/04/20 07:54:37;;;;;;;6.80;4.50;;;14.80;70.90;;;;;;4927505;28;20261;-85
2021/04/20 07:57:11;;;;;;;5.30;4.17;;;14.80;70.90;;;;;;4911943;28;20777;-86
2021/04/20 07:59:46;;;;;;;5.83;4.20;;;15.00;70.50;;;;;;4919336;28;20499;-85
2021/04/20 08:02:31;;;;;;;4.90;4.20;;;15.10;69.80;;;;;;4936029;28;20221;-85
2021/04/20 08:05:14;;;;;;;5.10;4.60;;;15.10;69.70;;;;;;4928562;28;20495;-85
2021/04/20 08:07:54;;;;;;;4.40;4.00;;;15.20;69.60;;;;;;4916603;29;20209;-83
2021/04/20 08:10:29;;;;;;;6.07;4.53;;;15.10;69.20;;;;;;4912733;28;20229;-82
2021/04/20 08:13:03;;;;;;;4.53;4.13;;;15.20;69.10;;;;;;4913858;29;20527;-82
2021/04/20 08:15:48;;;;;;;4.93;4.30;;;15.00;69.10;;;;;;4912106;29;20214;-84
2021/04/20 08:18:44;;;;;;;5.90;5.20;;;15.10;69.70;;;;;;4908635;29;20256;-82
2021/04/20 08:21:15;;;;;;;5.23;4.67;;;15.00;69.40;;;;;;4906008;29;20340;-82
2021/04/20 08:23:49;;;;;;;5.03;4.23;;;15.20;68.70;;;;;;4913762;28;20205;-84
2021/04/20 08:26:23;;;;;;;5.43;4.93;;;15.50;68.60;;;;;;4919615;28;20214;-84
2021/04/20 08:28:58;;;;;;;8.03;4.63;;;15.40;67.40;;;;;;4907921;29;20214;-84
2021/04/20 08:31:34;;;;;;;6.80;4.90;;;15.10;67.90;;;;;;4913044;29;20206;-83
2021/04/20 08:34:16;;;;;;;4.80;4.40;;;15.20;67.60;;;;;;4921853;28;20253;-86
2021/04/20 08:37:03;;;;;;;6.40;4.63;;;15.20;67.70;;;;;;4911592;28;20298;-83
2021/04/20 08:39:38;;;;;;;8.60;4.83;;;15.40;68.20;;;;;;4915272;28;21130;-84
2021/04/20 08:42:15;;;;;;;5.37;4.60;;;15.50;68.20;;;;;;4911653;28;20236;-84
2021/04/20 08:44:50;;;;;;;6.40;5.17;;;15.50;67.00;;;;;;4921324;28;21060;-82
2021/04/20 08:47:26;;;;;;;5.10;4.60;;;15.20;66.90;;;;;;4920571;28;20206;-83
2021/04/20 08:50:01;;;;;;;5.40;4.67;;;15.20;67.10;;;;;;4913813;28;20198;-83
2021/04/20 08:52:44;;;;;;;6.63;4.73;;;15.30;67.80;;;;;;4909277;28;20217;-84
2021/04/20 08:55:30;;;;;;;5.20;4.70;;;15.50;67.60;;;;;;4906162;29;20599;-86
2021/04/20 08:58:12;;;;;;;7.10;5.20;;;15.60;67.30;;;;;;4907441;28;22026;-84
2021/04/20 09:00:56;;;;;;;4.23;3.83;;;15.80;67.40;;;;;;4913362;28;20319;-84
2021/04/20 09:03:44;;;;;;;6.43;4.13;;;15.80;65.90;;;;;;4916597;28;20217;-82
2021/04/20 09:06:28;;;;;;;5.57;4.60;;;15.40;65.70;;;;;;4908168;28;21145;-82
2021/04/20 09:09:06;;;;;;;7.63;6.10;;;15.30;65.70;;;;;;4907476;29;20294;-83
2021/04/20 09:11:45;;;;;;;7.00;5.60;;;15.10;66.60;;;;;;4910711;29;20217;-83
2021/04/20 09:14:25;;;;;;;5.90;5.33;;;15.10;66.20;;;;;;4914353;29;20754;-82
2021/04/20 09:16:59;;;;;;;9.80;5.80;;;15.30;66.10;;;;;;4910600;29;20328;-82
2021/04/20 09:19:37;;;;;;;8.37;5.60;;;15.40;66.20;;;;;;4921013;28;20465;-84
2021/04/20 09:22:23;;;;;;;6.20;5.60;;;15.20;66.70;;;;;;4921018;29;20210;-83
2021/04/20 09:25:09;;;;;;;6.50;5.80;;;15.30;66.70;;;;;;4923556;28;20202;-82
2021/04/20 09:27:52;;;;;;;6.77;5.93;;;15.40;66.70;;;;;;4915781;29;20206;-82
2021/04/20 09:30:33;;;;;;;8.10;6.63;;;15.60;66.50;;;;;;4925291;29;20217;-84
2021/04/20 09:33:17;;;;;;;7.80;6.97;;;15.80;65.90;;;;;;4930977;29;20213;-82
2021/04/20 09:35:56;;;;;;;8.43;7.00;;;15.90;65.60;;;;;;4916313;29;20214;-83
2021/04/20 09:38:30;;;;;;;7.17;6.47;;;16.00;64.70;;;;;;4903610;28;20687;-82
2021/04/20 09:41:07;;;;;;;7.37;5.10;;;16.00;64.80;;;;;;4907527;29;20238;-83
2021/04/20 09:43:48;;;;;;;8.07;7.27;;;16.10;64.80;;;;;;4908608;29;20621;-84
2021/04/20 09:46:29;;;;;;;7.47;6.60;;;16.00;63.90;;;;;;4909939;29;20198;-86
2021/04/20 09:49:07;;;;;;;9.33;6.60;;;16.00;64.30;;;;;;4907387;29;20206;-82
2021/04/20 09:51:46;;;;;;;8.20;6.97;;;16.20;64.80;;;;;;4907055;29;20217;-83
2021/04/20 09:54:21;;;;;;;8.13;6.87;;;16.30;63.80;;;;;;4909164;28;20877;-82
2021/04/20 09:56:53;;;;;;;7.80;6.57;;;16.30;64.10;;;;;;4909579;29;20209;-84
2021/04/20 09:59:44;;;;;;;6.97;6.27;;;16.20;64.20;;;;;;4906891;29;20210;-83
2021/04/20 10:02:50;;;;;;;7.07;6.30;;;16.10;63.80;;;;;;4913965;28;21327;-82
2021/04/20 10:05:28;;;;;;;8.07;7.20;;;15.90;62.90;;;;;;4906539;29;20198;-84
2021/04/20 10:08:19;;;;;;;7.83;7.00;;;15.80;63.30;;;;;;4925515;28;20365;-82
2021/04/20 10:10:53;;;;;;;7.53;6.80;;;15.80;63.50;;;;;;4918461;28;20240;-81
2021/04/20 10:13:36;;;;;;;9.23;6.63;;;15.70;63.00;;;;;;4920969;28;20202;-83
2021/04/20 10:16:10;;;;;;;7.53;6.13;;;15.80;63.40;;;;;;4920144;28;20206;-85
2021/04/20 10:18:45;;;;;;;7.87;6.27;;;16.00;62.30;;;;;;4915457;28;20948;-82
2021/04/20 10:21:22;;;;;;;7.73;6.80;;;16.20;62.90;;;;;;4937251;28;20256;-83
2021/04/20 10:24:08;;;;;;;7.70;7.00;;;16.20;62.00;;;;;;4934657;28;20198;-83
2021/04/20 10:26:43;;;;;;;7.50;6.13;;;16.40;62.80;;;;;;4934774;28;20217;-82
2021/04/20 10:29:22;;;;;;;7.53;5.87;;;16.50;62.40;;;;;;4924425;28;21317;-83
2021/04/20 10:31:58;;;;;;;6.77;6.10;;;16.70;62.10;;;;;;4927602;29;20456;-84
2021/04/20 10:34:28;;;;;;;6.97;6.37;;;16.70;61.60;;;;;;4918163;28;20642;-83
2021/04/20 10:36:59;;;;;;;8.13;6.33;;;16.70;62.60;;;;;;4924390;29;20337;-85
2021/04/20 10:39:29;;;;;;;7.80;7.00;;;16.60;61.10;;;;;;4907840;28;20542;-83
2021/04/20 10:41:58;;;;;;;6.07;5.47;;;16.40;62.00;;;;;;4914719;28;20616;-81
2021/04/20 10:44:31;;;;;;;7.00;6.30;;;16.10;61.40;;;;;;4933541;29;20216;-82
2021/04/20 10:47:00;;;;;;;14.87;11.57;;;16.00;61.00;;;;;;4926031;29;20213;-83
2021/04/20 10:49:34;;;;;;;10.63;8.27;;;16.00;62.00;;;;;;4922402;28;20250;-82
2021/04/20 10:52:09;;;;;;;7.23;6.43;;;16.00;61.40;;;;;;4935005;28;20441;-82
2021/04/20 10:54:42;;;;;;;8.07;7.03;;;16.10;60.90;;;;;;4929405;28;20202;-85
2021/04/20 10:57:12;;;;;;;8.07;7.20;;;16.20;61.00;;;;;;4925512;29;21155;-83
2021/04/20 10:59:43;;;;;;;8.03;7.20;;;16.00;61.00;;;;;;4930826;28;20349;-84
2021/04/20 11:02:18;;;;;;;8.37;7.00;;;16.10;61.40;;;;;;4939684;28;20261;-83
2021/04/20 11:04:50;;;;;;;7.90;6.47;;;16.30;61.00;;;;;;4931770;28;20181;-84
2021/04/20 11:07:23;;;;;;;6.87;5.93;;;16.40;61.80;;;;;;4941384;28;20214;-83
2021/04/20 11:26:05;;;;;;;6.47;5.87;;;16.80;58.10;;;;;;4939890;29;20472;-84
2021/04/20 11:36:20;;;;;;;6.90;6.30;;;17.50;58.70;;;;;;4936667;29;20214;-81
2021/04/20 11:39:25;;;;;;;6.90;5.90;;;17.70;58.30;;;;;;5010668;23;20564;-82
2021/04/20 11:51:45;;;;;;;6.73;5.67;;;17.50;55.10;;;;;;4928040;29;20387;-82
2021/04/20 11:54:42;;;;;;;6.20;5.60;;;17.10;55.60;;;;;;4929384;29;20598;-81
2021/04/20 11:57:16;;;;;;;6.60;5.83;;;16.90;56.30;;;;;;4930197;29;20226;-82
2021/04/20 11:59:54;;;;;;;6.00;5.40;;;16.60;56.50;;;;;;4933533;29;20202;-81
2021/04/20 12:02:58;;;;;;;6.43;5.47;;;16.50;56.30;;;;;;4939207;28;20274;-80
2021/04/20 12:08:46;;;;;;;6.50;5.90;;;16.60;56.90;;;;;;4941284;28;20399;-83
2021/04/20 12:11:19;;;;;;;6.33;5.80;;;16.90;56.20;;;;;;4940264;28;20470;-82
2021/04/20 12:13:50;;;;;;;7.60;6.13;;;17.00;56.20;;;;;;4944919;28;20186;-84
2021/04/20 12:16:19;;;;;;;7.60;5.43;;;17.30;57.50;;;;;;4947550;28;20221;-83
2021/04/20 12:18:53;;;;;;;6.63;5.97;;;17.20;56.60;;;;;;4940046;28;20267;-81
2021/04/20 12:21:25;;;;;;;6.40;5.70;;;16.90;55.00;;;;;;4935272;28;20233;-81
2021/04/20 12:24:11;;;;;;;8.10;5.90;;;16.70;55.60;;;;;;4928855;29;20237;-81
2021/04/20 12:26:43;;;;;;;6.87;6.13;;;16.70;55.50;;;;;;4945091;28;20201;-82
2021/04/20 12:29:15;;;;;;;6.93;5.93;;;16.50;55.70;;;;;;4941309;28;20233;-81
2021/04/20 12:31:44;;;;;;;6.73;6.13;;;16.40;56.80;;;;;;4937352;28;20209;-81
2021/04/20 12:34:13;;;;;;;7.27;6.27;;;16.70;55.30;;;;;;4939376;28;20552;-82
2021/04/20 12:36:49;;;;;;;9.43;6.37;;;16.80;55.30;;;;;;4932284;28;21330;-85
2021/04/20 12:39:26;;;;;;;6.13;5.63;;;16.70;56.20;;;;;;4931488;29;20213;-83
2021/04/20 12:41:57;;;;;;;6.53;5.13;;;16.30;57.50;;;;;;4945599;28;20280;-82
2021/04/20 12:44:30;;;;;;;7.23;5.67;;;16.00;57.90;;;;;;4939136;29;21029;-83
2021/04/20 12:46:58;;;;;;;6.83;5.90;;;15.80;59.20;;;;;;4946256;28;20201;-83
2021/04/20 12:49:26;;;;;;;5.23;4.63;;;15.70;60.60;;;;;;4933513;28;20290;-83
2021/04/20 12:51:57;;;;;;;5.60;5.10;;;15.20;61.30;;;;;;4943107;28;20185;-80
2021/04/20 12:54:35;;;;;;;5.27;4.30;;;15.00;62.10;;;;;;4943776;28;20213;-84
2021/04/20 12:57:07;;;;;;;7.90;5.23;;;15.10;62.20;;;;;;4939090;28;20237;-83
2021/04/20 12:59:37;;;;;;;5.90;5.40;;;15.20;62.20;;;;;;4935335;28;20214;-83
2021/04/20 13:02:06;;;;;;;5.80;5.20;;;15.40;62.20;;;;;;4930159;28;20460;-81
2021/04/20 13:04:36;;;;;;;7.47;5.47;;;15.50;61.60;;;;;;4925678;28;20478;-82
2021/04/20 13:07:08;;;;;;;5.77;5.10;;;15.60;61.50;;;;;;4919444;29;20912;-84
2021/04/20 13:09:39;;;;;;;6.73;5.00;;;15.80;60.80;;;;;;4933236;28;20280;-85
2021/04/20 13:12:11;;;;;;;5.30;4.50;;;15.90;58.90;;;;;;4926791;29;20617;-84
2021/04/20 13:14:41;;;;;;;5.87;4.37;;;15.90;56.00;;;;;;4924823;29;20206;-85
2021/04/20 13:17:15;;;;;;;7.43;4.43;;;16.10;55.70;;;;;;4938695;28;20462;-84
2021/04/20 13:19:48;;;;;;;6.77;4.47;;;16.30;55.30;;;;;;4930332;28;21165;-84
2021/04/20 13:22:17;;;;;;;5.83;4.43;;;16.50;55.20;;;;;;4938093;28;20257;-83
2021/04/20 13:24:57;;;;;;;6.00;4.30;;;16.80;55.30;;;;;;4943571;28;20212;-83
2021/04/20 13:27:27;;;;;;;7.10;4.53;;;17.10;55.40;;;;;;4936125;28;20205;-85
2021/04/20 13:29:57;;;;;;;5.87;4.63;;;17.20;54.30;;;;;;4933016;28;20564;-83
2021/04/20 13:32:27;;;;;;;6.07;4.87;;;17.20;53.70;;;;;;4932671;28;20214;-83
2021/04/20 13:34:58;;;;;;;5.07;4.57;;;17.30;53.60;;;;;;4928703;29;20205;-82
2021/04/20 13:37:36;;;;;;;6.00;5.23;;;17.30;53.30;;;;;;4940463;29;20225;-84
2021/04/20 13:40:11;;;;;;;6.53;5.70;;;17.10;54.40;;;;;;4938703;29;20201;-81
2021/04/20 13:42:54;;;;;;;6.00;5.43;;;17.30;54.20;;;;;;4939782;28;20206;-83
2021/04/20 13:45:26;;;;;;;6.23;5.67;;;17.50;54.10;;;;;;4937571;29;20202;-84
2021/04/20 13:47:58;;;;;;;6.50;5.90;;;17.50;53.70;;;;;;4936855;28;20460;-83